Flight Track Log - Related Links

Times and Time Zones

All times are in EDT time to prevent confusion due to time zone crossing. See the EJA826 flight status page for this flight to view local times or setup timezone preferences in your user account.

Time Position Orientation Groundspeed Altitude Reporting Facility
EDT Latitude Longitude Course Direction KTS MPH feet Rate Location/Type
Fri 03:56:48 PM 33.8333 -118.3833 35° Northeast 202 232 2,300  Level Southern California TRACON
Fri 03:57:22 PM 33.8436 -118.4033 302° West 206 237 3,000 495 Climbing Los Angeles Center
Fri 03:58:25 PM 33.7978 -118.4633 227° Southwest 213 245 3,100 1,008 Climbing Los Angeles Center
Fri 03:59:27 PM 33.7519 -118.5086 219° Southwest 218 251 5,100 2,177 Climbing Los Angeles Center
Fri 04:00:29 PM 33.6972 -118.5442 208° Southwest 235 270 7,600 2,468 Climbing Los Angeles Center
Fri 04:01:31 PM 33.6308 -118.5289 169° South 245 282 10,200 2,226 Climbing Los Angeles Center
Fri 04:02:00 PM 34.0256 -117.8233 35° Northeast  Level FlightAware Approximate
Fri 04:02:33 PM 33.6206 -118.4250 97° East 295 339 12,200  Level Los Angeles Center
Fri 04:03:35 PM 33.6672 -118.3206 62° Northeast 352 405 14,100 2,032 Climbing Los Angeles Center
Fri 04:04:37 PM 33.7144 -118.2128 62° Northeast 378 435 16,400 1,355 Climbing Los Angeles Center
Fri 04:05:39 PM 33.7728 -118.0789 62° Northeast 382 440 16,900 774 Climbing Los Angeles Center
Fri 04:06:41 PM 33.8489 -117.9956 42° Northeast 381 438 18,000 1,296 Climbing Los Angeles Center
Fri 04:07:44 PM 33.9458 -117.9694 13° North 370 426 19,600 1,440 Climbing Los Angeles Center
Fri 04:08:46 PM 34.0503 -117.9647 North 383 441 21,000 677 Climbing Los Angeles Center
Fri 04:09:48 PM 34.1286 -117.8653 46° Northeast 414 476 21,000  Level Los Angeles Center
Fri 04:10:50 PM 34.2142 -117.7347 52° Northeast 415 478 21,000  Level Los Angeles Center
Fri 04:11:52 PM 34.2864 -117.6258 51° Northeast 416 479 21,000  Level Los Angeles Center
Fri 04:12:54 PM 34.3583 -117.5161 52° Northeast 417 480 21,000  Level Los Angeles Center
Fri 04:13:56 PM 34.4344 -117.3981 52° Northeast 419 482 21,000  Level Los Angeles Center
Fri 04:14:58 PM 34.5025 -117.2906 52° Northeast 409 471 21,000  Level Los Angeles Center
Fri 04:16:00 PM 34.5742 -117.1808 52° Northeast 415 478 21,000  Level Los Angeles Center
Fri 04:17:03 PM 34.6458 -117.0717 51° Northeast 416 479 21,000  Level Los Angeles Center
Fri 04:18:05 PM 34.7314 -116.9378 52° Northeast 420 483 21,000  Level Los Angeles Center
Fri 04:19:07 PM 34.8014 -116.8272 52° Northeast 418 481 21,000  Level Los Angeles Center
Fri 04:20:09 PM 34.8719 -116.7175 52° Northeast 414 476 21,000  Level Los Angeles Center
Fri 04:21:11 PM 34.9419 -116.6075 52° Northeast 414 476 21,000  Level Los Angeles Center
Fri 04:22:13 PM 35.0200 -116.5033 48° Northeast 417 480 21,000  Level Los Angeles Center
Fri 04:23:15 PM 35.1006 -116.4017 46° Northeast 418 481 21,000  Level Los Angeles Center
Fri 04:24:17 PM 35.1981 -116.2817 45° Northeast 416 479 21,000  Level Los Angeles Center
Fri 04:25:19 PM 35.2783 -116.1817 45° Northeast 413 475 21,000  Level Los Angeles Center
Fri 04:26:21 PM 35.3575 -116.0786 47° Northeast 415 478 21,000 -968 Level Los Angeles Center
Fri 04:27:23 PM 35.4378 -115.9800 45° Northeast 412 474 19,000 -2,050 Descending Los Angeles Center
Fri 04:28:21 PM 35.5222 -115.8744 45° Northeast 399 459 16,900 -2,022 Descending Los Angeles Center
Fri 04:28:52 PM 35.5558 -115.8297 47° Northeast 394 453 16,000 -1,701 Descending Los Angeles Center
Fri 04:29:28 PM 35.5983 -115.7761 46° Northeast 388 447 15,000 -1,869 Descending Los Angeles Center
Fri 04:29:53 PM 35.6358 -115.7300 45° Northeast 381 438 14,100 -1,742 Descending Los Angeles Center
Fri 04:30:30 PM 35.6711 -115.6833 47° Northeast 381 438 13,200 -984 Descending Los Angeles Center
Fri 04:30:54 PM 35.7069 -115.6386 45° Northeast 372 428 13,100 -194 Descending Los Angeles Center
Fri 04:31:32 PM 35.7531 -115.5836 44° Northeast 369 425 13,000 -100 Descending Los Angeles Center
Fri 04:31:54 PM 35.7903 -115.5747 11° North 358 412 13,000 -97 Level Los Angeles Center
Fri 04:32:34 PM 35.8519 -115.5689 North 355 409 12,900 -492 Descending Los Angeles Center
Fri 04:32:55 PM 35.8886 -115.5694 359° North 355 409 12,500 -1,065 Descending Los Angeles Center
Fri 04:33:36 PM 35.9550 -115.5539 11° North 353 406 11,800 -1,082 Descending Los Angeles Center
Fri 04:33:56 PM 35.9800 -115.5239 44° Northeast 357 411 11,400 -1,065 Descending Los Angeles Center
Fri 04:34:38 PM 36.0042 -115.4553 66° East 351 404 10,700 -1,180 Descending Los Angeles Center
Fri 04:34:57 PM 36.0189 -115.4131 67° East 338 389 10,200 -677 Descending Los Angeles Center
Fri 04:35:40 PM 36.0275 -115.3500 80° East 329 379 10,000 -295 Descending Los Angeles Center
Fri 04:35:58 PM 36.0247 -115.3100 95° East 278 320 9,900 -677 Descending Los Angeles Center
Fri 04:36:42 PM 36.0214 -115.2603 95° East 274 315 9,300 -1,082 Descending Los Angeles Center
Fri 04:36:59 PM 36.0197 -115.2267 93° East 247 284 8,800 -1,143 Descending Los Angeles Center
Fri 04:37:45 PM 36.0158 -115.1775 96° East 251 289 8,100 -689 Descending Los Angeles Center
Fri 04:38:00 PM 36.0144 -115.1433 93° East 243 280 8,100  Level Los Angeles Center
Fri 04:38:47 PM 36.0094 -115.0789 95° East 244 281 8,100 -220 Level Los Angeles Center
Fri 04:39:49 PM 36.0592 -115.0406 32° Northeast 231 266 7,700 -1,113 Descending Los Angeles Center
Fri 04:40:51 PM 36.1144 -115.0561 347° North 209 241 5,800 -2,015 Descending Los Angeles Center
Fri 04:42:03 PM 36.1347 -115.1197 292° West 136 157 3,200 -1,444 Descending Los Angeles Center
Fri 04:43:04 PM 36.1147 -115.1475 228° Southwest 116 133 2,600 -579 Descending Los Angeles Center
Fri 04:43:57 PM 36.0975 -115.1569 204° Southwest 120 138 2,100 -566 Descending Los Angeles Center
Fri 04:45:00 PM 36.0801 -115.1523 143° Southeast  Level Estimated
Fri 04:52:00 PM 36.0801 -115.1523 270° West  Level Estimated

Login

Don't have an account? Register now (free) for customized features, flight alerts, and more!